Rosebud, Texas
Current Conditions -  °F | °C
As of 1:55 AM on Thursday 29 Jan 2015 (Local Time) from KT35 Reporting Station
Clear Clear  
Wind Chill: 58°   Ceiling: Unl
Heat Index: 58°   Visibility: 10mi
Dew Point: 55°   Wind: 7mph
Humidity: 89%   Direction: 200°SSW
Pressure: 30.13"   Gusts: NA
Location:  31.07°N, 96.98°W
Report Text: KT35 290755Z AUTO 20006KT 10SM CLR 14/13 A3013 RMK AO2 T01430125
Loading
Personal Weather Stations






























Interactive Weather Map New forecast layout! Learn more

10-Day Weather Forecast

Advertisements
Track Severe Weather on mobile